Time;durP1;ratioP1;P1;durP2;ratioP2;P2;SDS_P1;SDS_P2;PMS_P1;PMS_P2;Temp;Humidity;BMP_temperature;BMP_pressure;BME280_temperature;BME280_humidity;BME280_pressure;Samples;Min_cycle;Max_cycle;Signal;HPM_P1;HPM_P2
2021/04/26 00:00:13;;;;;;;1.57;1.00;;;;;;;;;;5086768;28;20197;-53
2021/04/26 00:02:41;;;;;;;3.40;0.93;;;;;;;;;;5084748;28;20177;-53
2021/04/26 00:05:07;;;;;;;1.03;0.83;;;;;;;;;;5087773;28;20184;-53
2021/04/26 00:07:32;;;;;;;3.27;1.17;;;;;;;;;;5083727;28;20186;-53
2021/04/26 00:09:57;;;;;;;1.67;0.80;;;;;;;;;;5061413;28;20202;-53
2021/04/26 00:12:25;;;;;;;1.37;0.83;;;;;;;;;;5076563;28;20706;-51
2021/04/26 00:14:50;;;;;;;1.33;0.90;;;;;;;;;;5085782;28;20205;-53
2021/04/26 00:17:18;;;;;;;1.10;0.80;;;;;;;;;;5084589;28;20240;-53
2021/04/26 00:19:43;;;;;;;1.97;1.03;;;;;;;;;;5070631;28;20273;-52
2021/04/26 00:22:08;;;;;;;3.17;0.87;;;;;;;;;;5084810;28;20176;-55
2021/04/26 00:24:34;;;;;;;1.37;0.87;;;;;;;;;;5085191;28;20268;-53
2021/04/26 00:27:01;;;;;;;2.10;0.73;;;;;;;;;;5071203;28;20212;-53
2021/04/26 00:29:29;;;;;;;1.10;0.80;;;;;;;;;;5088318;28;20216;-54
2021/04/26 00:31:54;;;;;;;1.63;0.70;;;;;;;;;;5087944;28;20185;-54
2021/04/26 00:34:21;;;;;;;1.20;0.80;;;;;;;;;;5067544;28;20645;-51
2021/04/26 00:36:47;;;;;;;1.30;0.70;;;;;;;;;;5089351;28;20211;-53
2021/04/26 00:39:12;;;;;;;1.90;1.30;;;;;;;;;;5088335;28;20279;-53
2021/04/26 00:41:40;;;;;;;1.07;0.80;;;;;;;;;;5078742;28;20181;-54
2021/04/26 00:44:07;;;;;;;1.70;0.57;;;;;;;;;;5087570;28;20856;-53
2021/04/26 00:46:32;;;;;;;1.07;0.87;;;;;;;;;;5064716;28;20540;-54
2021/04/26 00:48:58;;;;;;;2.20;1.00;;;;;;;;;;5087739;28;20276;-50
2021/04/26 00:51:25;;;;;;;2.23;0.90;;;;;;;;;;5083722;28;20216;-53
2021/04/26 00:53:51;;;;;;;1.47;0.80;;;;;;;;;;5065052;28;20246;-51
2021/04/26 00:56:18;;;;;;;1.97;1.00;;;;;;;;;;5064012;28;20196;-52
2021/04/26 00:58:43;;;;;;;1.97;1.00;;;;;;;;;;5089489;28;20887;-52
2021/04/26 01:01:11;;;;;;;1.20;0.80;;;;;;;;;;5064822;28;20199;-53
2021/04/26 01:03:36;;;;;;;1.03;0.90;;;;;;;;;;5085893;28;20229;-52
2021/04/26 01:06:04;;;;;;;1.17;0.70;;;;;;;;;;5082091;28;20193;-53
2021/04/26 01:08:29;;;;;;;1.03;0.80;;;;;;;;;;5083268;28;20209;-55
2021/04/26 01:10:55;;;;;;;1.23;0.87;;;;;;;;;;5086419;28;20210;-54
2021/04/26 01:13:39;;;;;;;1.47;0.80;;;;;;;;;;5068740;28;20204;-54
2021/04/26 01:16:23;;;;;;;0.73;0.73;;;;;;;;;;5081294;28;20280;-55
2021/04/26 01:19:07;;;;;;;1.57;1.00;;;;;;;;;;5087997;28;20829;-52
2021/04/26 01:21:54;;;;;;;3.77;1.00;;;;;;;;;;5050209;28;20658;-53
2021/04/26 01:24:22;;;;;;;1.00;0.90;;;;;;;;;;5087124;28;20623;-56
2021/04/26 01:27:02;;;;;;;1.40;0.80;;;;;;;;;;5067231;28;20262;-52
2021/04/26 01:29:30;;;;;;;2.07;0.87;;;;;;;;;;5085936;28;20204;-53
2021/04/26 01:31:57;;;;;;;1.53;0.80;;;;;;;;;;5083703;28;20177;-54
2021/04/26 01:34:23;;;;;;;3.00;1.17;;;;;;;;;;5081179;28;20257;-54
2021/04/26 01:36:51;;;;;;;1.77;0.90;;;;;;;;;;5081571;28;20283;-51
2021/04/26 01:39:19;;;;;;;1.43;0.80;;;;;;;;;;5080289;28;20220;-55
2021/04/26 01:41:52;;;;;;;2.67;0.90;;;;;;;;;;5084080;28;20185;-52
2021/04/26 01:44:17;;;;;;;1.73;1.03;;;;;;;;;;5081150;28;20180;-54
2021/04/26 01:46:46;;;;;;;2.37;0.70;;;;;;;;;;5081414;28;20172;-53
2021/04/26 01:49:12;;;;;;;1.10;1.00;;;;;;;;;;5084958;28;20204;-53
2021/04/26 01:51:38;;;;;;;1.07;0.80;;;;;;;;;;5085220;28;20180;-54
2021/04/26 01:54:04;;;;;;;1.20;0.80;;;;;;;;;;5081724;28;20275;-54
2021/04/26 01:56:35;;;;;;;1.63;1.00;;;;;;;;;;5080596;28;20646;-53
2021/04/26 01:59:00;;;;;;;2.40;1.00;;;;;;;;;;5079847;28;20202;-54
2021/04/26 02:01:26;;;;;;;1.13;0.90;;;;;;;;;;5086525;28;20173;-53
2021/04/26 02:03:52;;;;;;;0.97;0.70;;;;;;;;;;5084054;28;20245;-53
2021/04/26 02:06:18;;;;;;;2.33;1.00;;;;;;;;;;5067713;28;20172;-53
2021/04/26 02:08:43;;;;;;;4.87;1.20;;;;;;;;;;5085811;28;20215;-52
2021/04/26 02:11:14;;;;;;;1.80;1.13;;;;;;;;;;5085754;28;20180;-54
2021/04/26 02:13:40;;;;;;;2.10;0.90;;;;;;;;;;5084912;28;20220;-52
2021/04/26 02:16:06;;;;;;;0.97;0.70;;;;;;;;;;5085917;28;20187;-53
2021/04/26 02:18:34;;;;;;;2.10;1.00;;;;;;;;;;5070640;28;20196;-52
2021/04/26 02:21:01;;;;;;;1.20;0.77;;;;;;;;;;5069015;28;20195;-51
2021/04/26 02:23:30;;;;;;;1.00;0.80;;;;;;;;;;5067535;28;20188;-54
2021/04/26 02:25:58;;;;;;;0.90;0.80;;;;;;;;;;5070740;28;20176;-54
2021/04/26 02:28:24;;;;;;;1.00;0.80;;;;;;;;;;5089821;28;20303;-53
2021/04/26 02:30:52;;;;;;;1.80;1.00;;;;;;;;;;5089887;28;20267;-54
2021/04/26 02:33:21;;;;;;;1.17;0.97;;;;;;;;;;5085276;28;20263;-53
2021/04/26 02:35:52;;;;;;;0.93;0.83;;;;;;;;;;5083302;28;20498;-53
2021/04/26 02:38:49;;;;;;;1.50;0.80;;;;;;;;;;5088925;28;20224;-54
2021/04/26 02:41:16;;;;;;;1.07;0.70;;;;;;;;;;5041731;28;20215;-52
2021/04/26 02:43:45;;;;;;;3.47;0.90;;;;;;;;;;5088816;28;20180;-53
2021/04/26 02:46:11;;;;;;;0.90;0.83;;;;;;;;;;5086087;28;20242;-51
2021/04/26 02:48:37;;;;;;;1.77;0.80;;;;;;;;;;5090447;28;20219;-52
2021/04/26 02:51:05;;;;;;;0.97;0.80;;;;;;;;;;5090497;28;20188;-54
2021/04/26 02:53:33;;;;;;;0.90;0.90;;;;;;;;;;5087433;28;20186;-53
2021/04/26 02:56:02;;;;;;;2.43;0.90;;;;;;;;;;5086073;28;20228;-54
2021/04/26 02:58:28;;;;;;;1.30;1.07;;;;;;;;;;5084001;28;20204;-53
2021/04/26 03:00:53;;;;;;;1.67;0.70;;;;;;;;;;5084436;28;20391;-52
2021/04/26 03:03:21;;;;;;;0.93;0.83;;;;;;;;;;5083027;28;20211;-53
2021/04/26 03:05:50;;;;;;;0.83;0.70;;;;;;;;;;5075148;28;20191;-52
2021/04/26 03:08:17;;;;;;;1.70;0.80;;;;;;;;;;5086510;28;20263;-53
2021/04/26 03:10:47;;;;;;;1.27;0.70;;;;;;;;;;5090262;28;20215;-51
2021/04/26 03:13:17;;;;;;;1.30;0.80;;;;;;;;;;5089506;28;20737;-53
2021/04/26 03:15:44;;;;;;;2.13;0.90;;;;;;;;;;5086796;28;20204;-53
2021/04/26 03:18:15;;;;;;;1.30;1.00;;;;;;;;;;5070214;28;20653;-53
2021/04/26 03:20:43;;;;;;;1.70;0.80;;;;;;;;;;5087710;28;20575;-52
2021/04/26 03:23:09;;;;;;;0.83;0.70;;;;;;;;;;5089535;22;20307;-70
2021/04/26 03:25:37;;;;;;;0.97;0.80;;;;;;;;;;5086977;28;20279;-72
2021/04/26 03:28:03;;;;;;;1.23;1.00;;;;;;;;;;5068225;28;20227;-69
2021/04/26 03:30:29;;;;;;;1.17;0.80;;;;;;;;;;5069359;28;20207;-70
2021/04/26 03:32:54;;;;;;;1.50;0.63;;;;;;;;;;5065660;28;20181;-72
2021/04/26 03:35:20;;;;;;;3.13;0.70;;;;;;;;;;5067841;28;20189;-71
2021/04/26 03:37:46;;;;;;;1.23;0.70;;;;;;;;;;5071068;28;20188;-71
2021/04/26 03:40:15;;;;;;;3.83;0.73;;;;;;;;;;5071896;28;20629;-71
2021/04/26 03:42:40;;;;;;;1.53;0.77;;;;;;;;;;5053033;28;20234;-69
2021/04/26 03:45:05;;;;;;;0.60;0.60;;;;;;;;;;5071506;28;20193;-70
2021/04/26 03:47:30;;;;;;;1.07;0.63;;;;;;;;;;5068913;28;20865;-72
2021/04/26 03:49:56;;;;;;;1.58;1.00;;;;;;;;;;5069920;28;20249;-72
2021/04/26 03:52:21;;;;;;;2.03;0.90;;;;;;;;;;5075006;28;20192;-71
2021/04/26 03:54:46;;;;;;;0.90;0.80;;;;;;;;;;5067870;28;20177;-70
2021/04/26 03:57:11;;;;;;;0.80;0.80;;;;;;;;;;5068560;28;20224;-70
2021/04/26 03:59:38;;;;;;;1.57;0.90;;;;;;;;;;5069849;28;20178;-71
2021/04/26 04:02:04;;;;;;;0.70;0.60;;;;;;;;;;5067019;28;20718;-72
2021/04/26 04:04:29;;;;;;;1.03;0.70;;;;;;;;;;5067328;28;20204;-71
2021/04/26 04:06:54;;;;;;;0.80;0.80;;;;;;;;;;5046541;28;20208;-71
2021/04/26 04:09:21;;;;;;;1.30;0.80;;;;;;;;;;5066125;28;20193;-70
2021/04/26 04:11:47;;;;;;;0.90;0.80;;;;;;;;;;5068295;28;20193;-69
2021/04/26 04:14:12;;;;;;;5.83;1.00;;;;;;;;;;5066623;28;20184;-69
2021/04/26 04:16:37;;;;;;;1.60;0.80;;;;;;;;;;5061620;28;20672;-71
2021/04/26 04:19:03;;;;;;;1.00;0.80;;;;;;;;;;5064762;28;20173;-71
2021/04/26 04:21:28;;;;;;;1.10;0.90;;;;;;;;;;5063255;28;20165;-71
2021/04/26 04:23:53;;;;;;;1.20;0.70;;;;;;;;;;5067312;28;20189;-70
2021/04/26 04:26:18;;;;;;;1.87;1.00;;;;;;;;;;5067348;28;20217;-70
2021/04/26 04:28:44;;;;;;;4.73;0.80;;;;;;;;;;5068822;28;20194;-70
2021/04/26 04:31:09;;;;;;;1.73;0.87;;;;;;;;;;5070429;28;20189;-70
2021/04/26 04:33:34;;;;;;;1.87;0.97;;;;;;;;;;5068496;28;20185;-70
2021/04/26 04:36:00;;;;;;;0.77;0.70;;;;;;;;;;5068552;28;20217;-70
2021/04/26 04:38:26;;;;;;;2.00;0.77;;;;;;;;;;5062671;28;20174;-70
2021/04/26 04:40:51;;;;;;;1.40;0.80;;;;;;;;;;5062022;28;20253;-70
2021/04/26 04:43:17;;;;;;;2.33;0.80;;;;;;;;;;5072914;28;20188;-71
2021/04/26 04:45:42;;;;;;;1.17;0.90;;;;;;;;;;5069743;28;20205;-69
2021/04/26 04:48:07;;;;;;;1.83;0.73;;;;;;;;;;5054835;28;20204;-70
2021/04/26 04:50:32;;;;;;;1.77;0.80;;;;;;;;;;5068249;28;20181;-70
2021/04/26 04:52:57;;;;;;;0.80;0.70;;;;;;;;;;5063200;28;20665;-71
2021/04/26 04:55:23;;;;;;;0.77;0.77;;;;;;;;;;5061668;28;20201;-71
2021/04/26 04:57:48;;;;;;;1.10;0.80;;;;;;;;;;5059986;28;20645;-71
2021/04/26 05:00:13;;;;;;;1.90;1.10;;;;;;;;;;5071455;28;20170;-72
2021/04/26 05:02:39;;;;;;;2.63;1.07;;;;;;;;;;5066678;28;20182;-70
2021/04/26 05:05:04;;;;;;;1.07;0.97;;;;;;;;;;5063702;28;20193;-73
2021/04/26 05:07:32;;;;;;;1.93;1.00;;;;;;;;;;5058568;28;20301;-69
2021/04/26 05:09:59;;;;;;;1.00;0.90;;;;;;;;;;5066860;28;20220;-71
2021/04/26 05:12:24;;;;;;;1.10;0.83;;;;;;;;;;5066926;28;20184;-70
2021/04/26 05:14:52;;;;;;;2.20;1.10;;;;;;;;;;5068954;28;20176;-70
2021/04/26 05:17:17;;;;;;;4.43;1.20;;;;;;;;;;5075729;28;20596;-71
2021/04/26 05:19:43;;;;;;;2.60;0.90;;;;;;;;;;5067510;28;20212;-70
2021/04/26 05:22:10;;;;;;;2.57;1.20;;;;;;;;;;5064029;28;20178;-71
2021/04/26 05:24:36;;;;;;;3.27;1.40;;;;;;;;;;5050349;28;20561;-71
2021/04/26 05:27:01;;;;;;;3.70;1.23;;;;;;;;;;5049126;28;20212;-70
2021/04/26 05:29:27;;;;;;;1.43;1.10;;;;;;;;;;5050289;28;20189;-70
2021/04/26 05:31:52;;;;;;;1.63;1.00;;;;;;;;;;5063503;28;20184;-70
2021/04/26 05:34:17;;;;;;;3.05;1.08;;;;;;;;;;5066329;28;20185;-72
2021/04/26 05:36:42;;;;;;;1.23;1.00;;;;;;;;;;5049417;28;20221;-70
2021/04/26 05:39:08;;;;;;;2.67;1.17;;;;;;;;;;5068733;28;20262;-70
2021/04/26 05:41:33;;;;;;;1.23;1.00;;;;;;;;;;5068238;28;20174;-71
2021/04/26 05:43:58;;;;;;;2.80;1.30;;;;;;;;;;5067173;28;20254;-70
2021/04/26 05:46:24;;;;;;;1.73;1.10;;;;;;;;;;5063342;28;20200;-72
2021/04/26 05:48:49;;;;;;;4.73;1.60;;;;;;;;;;5060644;28;20194;-71
2021/04/26 05:51:14;;;;;;;1.60;1.17;;;;;;;;;;5067229;28;20204;-71
2021/04/26 05:53:40;;;;;;;4.47;1.50;;;;;;;;;;5060282;28;20173;-69
2021/04/26 05:56:05;;;;;;;3.10;1.20;;;;;;;;;;5080360;22;20217;-54
2021/04/26 05:58:30;;;;;;;1.47;1.10;;;;;;;;;;5081496;28;20184;-52
2021/04/26 06:00:57;;;;;;;5.33;1.70;;;;;;;;;;5082961;28;20209;-52
2021/04/26 06:03:25;;;;;;;2.77;1.40;;;;;;;;;;5077295;28;20203;-52
2021/04/26 06:05:52;;;;;;;2.03;1.10;;;;;;;;;;5078299;28;20675;-52
2021/04/26 06:08:20;;;;;;;1.10;1.00;;;;;;;;;;5085824;28;20635;-54
2021/04/26 06:10:46;;;;;;;1.97;1.10;;;;;;;;;;5085294;28;20242;-52
2021/04/26 06:13:13;;;;;;;1.80;1.20;;;;;;;;;;5080623;28;20205;-51
2021/04/26 06:15:41;;;;;;;2.93;1.23;;;;;;;;;;5083336;28;20209;-53
2021/04/26 06:18:10;;;;;;;2.40;1.17;;;;;;;;;;5078534;28;20184;-50
2021/04/26 06:20:35;;;;;;;4.00;1.23;;;;;;;;;;5086308;28;20675;-53
2021/04/26 06:23:05;;;;;;;2.07;1.27;;;;;;;;;;5080686;28;20205;-53
2021/04/26 06:25:32;;;;;;;1.40;1.10;;;;;;;;;;5068916;28;20196;-54
2021/04/26 06:27:59;;;;;;;1.10;1.00;;;;;;;;;;5080625;28;20193;-53
2021/04/26 06:30:27;;;;;;;1.53;1.07;;;;;;;;;;5063203;28;20192;-51
2021/04/26 06:32:52;;;;;;;4.00;1.10;;;;;;;;;;5073411;28;20270;-54
2021/04/26 06:35:18;;;;;;;3.60;1.60;;;;;;;;;;5081807;28;20188;-52
2021/04/26 06:37:43;;;;;;;1.20;1.10;;;;;;;;;;5084103;28;20720;-52
2021/04/26 06:40:11;;;;;;;2.30;1.13;;;;;;;;;;5079527;28;20259;-51
2021/04/26 06:42:36;;;;;;;2.03;1.30;;;;;;;;;;5087752;28;20296;-53
2021/04/26 06:45:01;;;;;;;2.37;1.20;;;;;;;;;;5076502;28;20545;-53
2021/04/26 06:47:26;;;;;;;2.33;1.40;;;;;;;;;;5079091;28;20185;-53
2021/04/26 06:49:51;;;;;;;4.27;1.13;;;;;;;;;;5087183;28;20176;-55
2021/04/26 06:52:19;;;;;;;2.67;1.10;;;;;;;;;;5081908;28;20185;-54
2021/04/26 06:54:46;;;;;;;1.42;1.23;;;;;;;;;;5076681;28;20192;-54
2021/04/26 06:57:11;;;;;;;1.20;1.10;;;;;;;;;;5082319;28;20204;-53
2021/04/26 06:59:39;;;;;;;1.42;1.30;;;;;;;;;;5086273;28;20264;-53
2021/04/26 07:02:09;;;;;;;3.45;1.50;;;;;;;;;;5083113;28;20181;-52
2021/04/26 07:04:34;;;;;;;2.33;1.50;;;;;;;;;;5085295;28;20200;-50
2021/04/26 07:07:01;;;;;;;1.80;1.37;;;;;;;;;;5071925;28;20820;-53
2021/04/26 07:09:27;;;;;;;1.88;1.45;;;;;;;;;;5080793;28;20187;-52
2021/04/26 07:11:54;;;;;;;1.70;1.60;;;;;;;;;;5085757;28;20185;-53
2021/04/26 07:14:19;;;;;;;4.25;1.73;;;;;;;;;;5085895;28;20211;-54
2021/04/26 07:16:46;;;;;;;2.00;1.60;;;;;;;;;;5081932;28;20584;-55
2021/04/26 07:19:11;;;;;;;2.45;1.92;;;;;;;;;;5089010;28;20188;-55
2021/04/26 07:21:38;;;;;;;2.17;1.70;;;;;;;;;;5090083;28;20177;-54
2021/04/26 07:24:04;;;;;;;2.72;2.13;;;;;;;;;;5086811;28;20964;-55
2021/04/26 07:26:29;;;;;;;7.43;2.17;;;;;;;;;;5069087;28;20188;-54
2021/04/26 07:28:54;;;;;;;3.10;2.20;;;;;;;;;;5084811;28;20219;-55
2021/04/26 07:31:22;;;;;;;2.63;2.07;;;;;;;;;;5087475;28;20188;-55
2021/04/26 07:33:49;;;;;;;2.60;2.17;;;;;;;;;;5081123;28;20235;-52
2021/04/26 07:36:15;;;;;;;2.63;2.10;;;;;;;;;;5080505;28;20243;-52
2021/04/26 07:38:40;;;;;;;2.78;1.98;;;;;;;;;;5079506;28;20228;-52
2021/04/26 07:41:08;;;;;;;2.30;2.00;;;;;;;;;;5078059;28;20176;-52
2021/04/26 07:43:35;;;;;;;4.82;1.98;;;;;;;;;;5078750;28;20211;-52
2021/04/26 07:46:03;;;;;;;2.20;2.00;;;;;;;;;;5056619;28;20223;-52
2021/04/26 07:48:33;;;;;;;2.53;2.33;;;;;;;;;;5061629;28;20276;-49
2021/04/26 07:51:03;;;;;;;2.10;1.90;;;;;;;;;;5076095;28;20196;-50
2021/04/26 07:53:28;;;;;;;2.45;1.65;;;;;;;;;;5078419;28;20227;-51
2021/04/26 07:55:56;;;;;;;1.60;1.50;;;;;;;;;;5063836;28;20577;-52
2021/04/26 07:58:23;;;;;;;2.08;1.90;;;;;;;;;;5083180;28;20195;-51
2021/04/26 08:00:51;;;;;;;3.40;1.70;;;;;;;;;;5085358;28;20213;-51
2021/04/26 08:03:21;;;;;;;1.98;1.50;;;;;;;;;;5067249;28;20282;-51
2021/04/26 08:05:46;;;;;;;2.97;1.77;;;;;;;;;;5079181;28;20200;-51
2021/04/26 08:08:11;;;;;;;1.60;1.50;;;;;;;;;;5080795;28;20185;-50
2021/04/26 08:10:37;;;;;;;3.87;1.50;;;;;;;;;;5084699;28;20258;-53
2021/04/26 08:13:05;;;;;;;2.97;1.42;;;;;;;;;;5079969;28;20451;-53
2021/04/26 08:15:33;;;;;;;1.73;1.50;;;;;;;;;;5068405;28;20190;-52
2021/04/26 08:18:00;;;;;;;2.17;1.73;;;;;;;;;;5084887;28;20182;-51
2021/04/26 08:20:28;;;;;;;3.50;1.35;;;;;;;;;;5085732;28;20183;-51
2021/04/26 08:22:55;;;;;;;3.20;1.30;;;;;;;;;;5082009;28;20266;-51
2021/04/26 08:25:20;;;;;;;3.15;1.33;;;;;;;;;;5080662;28;20277;-52
2021/04/26 08:27:48;;;;;;;2.40;1.47;;;;;;;;;;5079459;28;20332;-49
2021/04/26 08:30:13;;;;;;;2.53;1.25;;;;;;;;;;5084894;28;20445;-54
2021/04/26 08:32:41;;;;;;;3.90;2.25;;;;;;;;;;5081677;28;20185;-49
2021/04/26 08:35:07;;;;;;;2.35;1.60;;;;;;;;;;5081584;28;20189;-50
2021/04/26 08:37:35;;;;;;;5.28;2.55;;;;;;;;;;5077717;28;20200;-50
2021/04/26 08:40:05;;;;;;;2.15;1.40;;;;;;;;;;5067681;28;20196;-50
2021/04/26 08:42:30;;;;;;;3.58;1.58;;;;;;;;;;5083192;28;20177;-51
2021/04/26 08:45:00;;;;;;;1.50;1.33;;;;;;;;;;5081456;28;20188;-51
2021/04/26 08:47:28;;;;;;;1.85;1.30;;;;;;;;;;5078760;28;20195;-52
2021/04/26 08:49:58;;;;;;;3.42;1.60;;;;;;;;;;5083309;28;20242;-53
2021/04/26 08:52:25;;;;;;;4.82;1.70;;;;;;;;;;5081946;28;20206;-54
2021/04/26 08:54:51;;;;;;;3.30;1.50;;;;;;;;;;5083365;28;20181;-50
2021/04/26 08:57:16;;;;;;;2.38;1.40;;;;;;;;;;5081285;28;20200;-50
2021/04/26 08:59:43;;;;;;;1.73;1.40;;;;;;;;;;5081875;28;20184;-49
2021/04/26 09:02:13;;;;;;;2.85;1.48;;;;;;;;;;5084888;28;20182;-49
2021/04/26 09:04:46;;;;;;;2.88;1.60;;;;;;;;;;5066427;28;20289;-50
2021/04/26 09:07:14;;;;;;;2.58;1.63;;;;;;;;;;5078980;28;20180;-51
2021/04/26 09:09:49;;;;;;;1.80;1.50;;;;;;;;;;5078202;28;20220;-49
2021/04/26 09:12:27;;;;;;;2.35;1.65;;;;;;;;;;5082666;28;20257;-51
2021/04/26 09:14:55;;;;;;;2.10;1.85;;;;;;;;;;5081929;28;20227;-53
2021/04/26 09:17:24;;;;;;;2.30;1.70;;;;;;;;;;5068091;28;20205;-52
2021/04/26 09:19:49;;;;;;;1.70;1.60;;;;;;;;;;5068543;28;20177;-51
2021/04/26 09:22:16;;;;;;;1.50;1.40;;;;;;;;;;5065768;28;20185;-52
2021/04/26 09:24:44;;;;;;;1.95;1.85;;;;;;;;;;5083781;28;20188;-53
2021/04/26 09:27:12;;;;;;;4.30;1.95;;;;;;;;;;5084918;22;20278;-55
2021/04/26 09:29:40;;;;;;;2.90;1.73;;;;;;;;;;5074623;28;20185;-52
2021/04/26 09:32:15;;;;;;;2.28;1.70;;;;;;;;;;5078941;28;20553;-52
2021/04/26 09:34:43;;;;;;;2.17;1.55;;;;;;;;;;5054739;28;20237;-52
2021/04/26 09:37:16;;;;;;;2.13;1.80;;;;;;;;;;5077419;28;20216;-52
2021/04/26 09:39:55;;;;;;;1.92;1.60;;;;;;;;;;5060965;28;20216;-53
2021/04/26 09:42:39;;;;;;;2.15;1.70;;;;;;;;;;5057478;28;20181;-51
2021/04/26 09:45:23;;;;;;;1.60;1.50;;;;;;;;;;5061124;28;20985;-53
2021/04/26 09:47:50;;;;;;;2.53;1.80;;;;;;;;;;5059725;28;20204;-53
2021/04/26 09:50:18;;;;;;;2.75;1.80;;;;;;;;;;5059046;28;20225;-53
2021/04/26 09:52:45;;;;;;;4.38;1.90;;;;;;;;;;5060547;28;20249;-52
2021/04/26 09:55:30;;;;;;;1.75;1.60;;;;;;;;;;5058440;28;20353;-53
2021/04/26 09:57:55;;;;;;;2.25;1.90;;;;;;;;;;5057138;28;20201;-54
2021/04/26 10:00:23;;;;;;;6.60;1.95;;;;;;;;;;5059959;28;20184;-54
2021/04/26 10:02:53;;;;;;;2.58;1.60;;;;;;;;;;5061614;28;20190;-54
2021/04/26 10:05:20;;;;;;;2.72;1.42;;;;;;;;;;5062694;28;20185;-54
2021/04/26 10:07:48;;;;;;;4.80;1.70;;;;;;;;;;5055305;28;20355;-53
2021/04/26 10:10:14;;;;;;;1.70;1.50;;;;;;;;;;5057730;28;20204;-53
2021/04/26 10:12:44;;;;;;;1.63;1.50;;;;;;;;;;5065273;28;20177;-53
2021/04/26 10:15:10;;;;;;;1.98;1.40;;;;;;;;;;5054004;28;20625;-53
2021/04/26 10:17:38;;;;;;;2.65;1.60;;;;;;;;;;5062595;28;20300;-54
2021/04/26 10:20:08;;;;;;;1.85;1.48;;;;;;;;;;5058375;28;20192;-51
2021/04/26 10:22:37;;;;;;;1.63;1.40;;;;;;;;;;5060328;28;20278;-54
2021/04/26 10:25:03;;;;;;;1.60;1.50;;;;;;;;;;5059437;28;20663;-51
2021/04/26 10:27:29;;;;;;;4.20;1.60;;;;;;;;;;5058101;28;20240;-51
2021/04/26 10:30:01;;;;;;;1.60;1.33;;;;;;;;;;5059339;28;20275;-50
2021/04/26 10:32:29;;;;;;;2.42;1.40;;;;;;;;;;5058931;28;20189;-53
2021/04/26 10:34:55;;;;;;;2.00;1.75;;;;;;;;;;5059877;28;20177;-53
2021/04/26 10:37:28;;;;;;;2.00;1.70;;;;;;;;;;5059032;28;20254;-53
2021/04/26 10:40:04;;;;;;;2.67;1.70;;;;;;;;;;5062286;28;20189;-51
2021/04/26 10:42:46;;;;;;;1.77;1.52;;;;;;;;;;5064416;28;20215;-54
2021/04/26 10:45:11;;;;;;;1.58;1.42;;;;;;;;;;5064476;28;20554;-53
2021/04/26 10:47:37;;;;;;;1.80;1.42;;;;;;;;;;5063692;28;20209;-52
2021/04/26 10:50:05;;;;;;;2.22;1.50;;;;;;;;;;5061881;28;20435;-50
2021/04/26 10:52:33;;;;;;;2.42;1.70;;;;;;;;;;5064371;28;20189;-51
2021/04/26 10:55:06;;;;;;;2.45;1.60;;;;;;;;;;5064062;28;20572;-50
2021/04/26 10:57:38;;;;;;;6.25;1.70;;;;;;;;;;5058266;28;20273;-51
2021/04/26 11:02:50;;;;;;;1.77;1.45;;;;;;;;;;5063801;28;20189;-52
2021/04/26 11:05:23;;;;;;;3.00;2.00;;;;;;;;;;5063566;28;20201;-52
2021/04/26 11:07:53;;;;;;;3.28;1.60;;;;;;;;;;5061884;28;20406;-52
2021/04/26 11:10:34;;;;;;;2.08;1.55;;;;;;;;;;5062179;28;20208;-53
2021/04/26 11:13:24;;;;;;;3.38;1.45;;;;;;;;;;5061019;28;20193;-52
2021/04/26 11:16:22;;;;;;;1.38;1.20;;;;;;;;;;5062697;28;20216;-50
2021/04/26 11:18:56;;;;;;;3.28;1.60;;;;;;;;;;5039988;28;20190;-53
2021/04/26 11:21:40;;;;;;;3.47;1.55;;;;;;;;;;5063160;28;20180;-50
2021/04/26 11:24:07;;;;;;;1.75;1.50;;;;;;;;;;5061933;28;20192;-52
2021/04/26 11:26:35;;;;;;;3.28;1.48;;;;;;;;;;5061859;28;20220;-53
2021/04/26 11:29:11;;;;;;;5.32;1.40;;;;;;;;;;5063092;28;20268;-52
2021/04/26 11:31:48;;;;;;;3.22;1.45;;;;;;;;;;5062589;28;20191;-53
2021/04/26 11:34:17;;;;;;;1.60;1.40;;;;;;;;;;5063320;28;20635;-52
2021/04/26 11:37:00;;;;;;;5.80;1.70;;;;;;;;;;5060189;28;20209;-53
2021/04/26 11:39:33;;;;;;;3.58;1.80;;;;;;;;;;5062476;28;20625;-52
2021/04/26 11:42:00;;;;;;;1.80;1.60;;;;;;;;;;5061822;28;20185;-53
2021/04/26 11:44:28;;;;;;;2.75;1.48;;;;;;;;;;5060843;28;20646;-53
2021/04/26 11:47:02;;;;;;;2.60;1.63;;;;;;;;;;5060340;28;20289;-52
2021/04/26 11:49:27;;;;;;;2.67;1.42;;;;;;;;;;5061540;28;20293;-52
2021/04/26 11:51:55;;;;;;;2.83;1.50;;;;;;;;;;5063297;28;20716;-52
2021/04/26 11:54:22;;;;;;;1.92;1.38;;;;;;;;;;5060333;28;20208;-53
2021/04/26 11:57:02;;;;;;;1.40;1.30;;;;;;;;;;5058337;28;20209;-51
2021/04/26 11:59:32;;;;;;;1.90;1.20;;;;;;;;;;5062054;28;20291;-54
2021/04/26 12:01:59;;;;;;;5.43;1.67;;;;;;;;;;5063454;28;20188;-54
2021/04/26 12:04:36;;;;;;;1.40;1.20;;;;;;;;;;5062461;28;20354;-52
2021/04/26 12:07:04;;;;;;;1.63;1.23;;;;;;;;;;5052577;28;20212;-54
2021/04/26 12:09:31;;;;;;;2.43;1.40;;;;;;;;;;5054753;28;20189;-53
2021/04/26 12:12:00;;;;;;;1.57;1.40;;;;;;;;;;5063626;28;20262;-50
2021/04/26 12:14:26;;;;;;;1.57;1.47;;;;;;;;;;5066178;28;20182;-50
2021/04/26 12:16:51;;;;;;;1.70;1.43;;;;;;;;;;5068096;28;20213;-51
2021/04/26 12:19:32;;;;;;;1.83;1.43;;;;;;;;;;5068674;28;20185;-50
2021/04/26 12:21:57;;;;;;;2.57;1.60;;;;;;;;;;5068342;28;20189;-51
2021/04/26 12:24:23;;;;;;;4.57;1.60;;;;;;;;;;5065701;28;20647;-52
2021/04/26 12:26:53;;;;;;;2.40;1.80;;;;;;;;;;5062364;28;20216;-52
2021/04/26 12:29:32;;;;;;;3.93;1.87;;;;;;;;;;5063105;28;20629;-53
2021/04/26 12:32:15;;;;;;;4.25;1.80;;;;;;;;;;5063245;28;20278;-53
2021/04/26 12:34:50;;;;;;;1.92;1.73;;;;;;;;;;5061544;28;20204;-53
2021/04/26 12:37:20;;;;;;;3.58;1.60;;;;;;;;;;5061210;28;20244;-53
2021/04/26 12:39:48;;;;;;;2.58;1.60;;;;;;;;;;5061686;28;20699;-54
2021/04/26 12:42:20;;;;;;;2.63;1.55;;;;;;;;;;5064930;28;20185;-52
2021/04/26 12:44:45;;;;;;;3.65;1.70;;;;;;;;;;5062572;28;20196;-54
2021/04/26 12:47:18;;;;;;;3.63;1.80;;;;;;;;;;5060858;28;20205;-53
2021/04/26 12:49:43;;;;;;;3.58;2.03;;;;;;;;;;5074145;28;20634;-53
2021/04/26 12:52:26;;;;;;;4.38;1.92;;;;;;;;;;5063623;28;20268;-53
2021/04/26 12:54:58;;;;;;;2.80;2.05;;;;;;;;;;5063794;28;20782;-54
2021/04/26 12:57:23;;;;;;;2.53;1.70;;;;;;;;;;5063753;28;20810;-54
2021/04/26 12:59:49;;;;;;;2.00;1.80;;;;;;;;;;5068412;28;20185;-55
2021/04/26 13:02:19;;;;;;;2.80;1.67;;;;;;;;;;5063747;28;20180;-52
2021/04/26 13:04:50;;;;;;;1.92;1.73;;;;;;;;;;5063917;28;20458;-54
2021/04/26 13:07:15;;;;;;;2.17;1.52;;;;;;;;;;5065186;28;20208;-53
2021/04/26 13:09:43;;;;;;;2.05;1.70;;;;;;;;;;5062485;28;20552;-56
2021/04/26 13:12:10;;;;;;;2.85;1.67;;;;;;;;;;5062774;28;20188;-53
2021/04/26 13:14:39;;;;;;;3.65;1.60;;;;;;;;;;5062899;28;20186;-52
2021/04/26 13:17:08;;;;;;;3.63;1.60;;;;;;;;;;5057375;28;20209;-53
2021/04/26 13:19:36;;;;;;;2.35;1.80;;;;;;;;;;5062557;28;20234;-53
2021/04/26 13:22:01;;;;;;;2.47;1.70;;;;;;;;;;5064698;28;20220;-52
2021/04/26 13:24:32;;;;;;;2.60;1.58;;;;;;;;;;5066468;28;20209;-53
2021/04/26 13:27:01;;;;;;;3.22;1.63;;;;;;;;;;5067295;28;20219;-54
2021/04/26 13:29:29;;;;;;;2.10;1.40;;;;;;;;;;5064333;28;20200;-52
2021/04/26 13:31:57;;;;;;;2.53;1.70;;;;;;;;;;5063434;28;20578;-52
2021/04/26 13:34:25;;;;;;;4.40;1.85;;;;;;;;;;5065297;28;20185;-53
2021/04/26 13:36:51;;;;;;;2.35;1.75;;;;;;;;;;5062436;28;20270;-53
2021/04/26 13:39:16;;;;;;;2.10;1.35;;;;;;;;;;5065731;28;20190;-52
2021/04/26 13:41:44;;;;;;;3.78;1.42;;;;;;;;;;5063481;28;20253;-50
2021/04/26 13:44:12;;;;;;;3.70;1.88;;;;;;;;;;5070114;28;20189;-52
2021/04/26 13:46:40;;;;;;;2.20;1.50;;;;;;;;;;5066072;28;20214;-52
2021/04/26 13:49:05;;;;;;;3.15;1.55;;;;;;;;;;5063264;28;20216;-53
2021/04/26 13:51:30;;;;;;;2.22;1.40;;;;;;;;;;5066521;28;20213;-52
2021/04/26 13:53:56;;;;;;;3.35;1.55;;;;;;;;;;5072355;28;20186;-52
2021/04/26 13:56:23;;;;;;;1.92;1.70;;;;;;;;;;5064949;28;20262;-52
2021/04/26 13:58:49;;;;;;;6.50;1.75;;;;;;;;;;5061966;28;20238;-53
2021/04/26 14:01:18;;;;;;;5.45;2.03;;;;;;;;;;5061763;28;20596;-52
2021/04/26 14:03:45;;;;;;;3.60;1.75;;;;;;;;;;5058483;28;20180;-53
2021/04/26 14:06:10;;;;;;;2.08;1.52;;;;;;;;;;5064173;28;20193;-54
2021/04/26 14:08:38;;;;;;;2.35;1.50;;;;;;;;;;5064890;28;20193;-52
2021/04/26 14:11:03;;;;;;;1.73;1.50;;;;;;;;;;5065429;28;20188;-52
2021/04/26 14:13:30;;;;;;;2.65;1.90;;;;;;;;;;5067478;28;20177;-52
2021/04/26 14:15:55;;;;;;;2.33;1.73;;;;;;;;;;5064365;28;20213;-54
2021/04/26 14:18:22;;;;;;;3.80;1.80;;;;;;;;;;5062995;28;20335;-50
2021/04/26 14:20:48;;;;;;;2.85;1.40;;;;;;;;;;5068045;28;20181;-52
2021/04/26 14:23:13;;;;;;;3.38;1.75;;;;;;;;;;5061924;28;20262;-50
2021/04/26 14:25:39;;;;;;;1.58;1.48;;;;;;;;;;5072547;28;20174;-54
2021/04/26 14:28:04;;;;;;;2.25;1.67;;;;;;;;;;5065347;28;20693;-52
2021/04/26 14:30:30;;;;;;;1.85;1.60;;;;;;;;;;5067696;28;20568;-51
2021/04/26 14:32:55;;;;;;;2.97;1.83;;;;;;;;;;5065759;28;20185;-52
2021/04/26 14:35:21;;;;;;;3.47;1.50;;;;;;;;;;5067270;28;20253;-53
2021/04/26 14:37:46;;;;;;;3.50;2.00;;;;;;;;;;5066674;28;20231;-53
2021/04/26 14:40:11;;;;;;;2.13;1.53;;;;;;;;;;5060960;28;20178;-50
2021/04/26 14:42:41;;;;;;;2.47;1.20;;;;;;;;;;5066376;28;20213;-53
2021/04/26 14:45:09;;;;;;;2.57;1.50;;;;;;;;;;5066729;28;20188;-53
2021/04/26 14:47:34;;;;;;;3.03;1.70;;;;;;;;;;5062073;28;20239;-52
2021/04/26 14:50:04;;;;;;;2.60;1.63;;;;;;;;;;5064133;28;20190;-54